Time;durP1;ratioP1;P1;durP2;ratioP2;P2;SDS_P1;SDS_P2;PMS_P1;PMS_P2;Temp;Humidity;BMP_temperature;BMP_pressure;BME280_temperature;BME280_humidity;BME280_pressure;Samples;Min_cycle;Max_cycle;Signal;HPM_P1;HPM_P2
2021/10/01 00:07:17;;;;;;;6.93;2.85;;;;;;;7.05;86.68;101239.56;20917657;28;20056;-82
2021/10/01 00:17:19;;;;;;;7.85;2.75;;;;;;;6.98;87.24;101231.66;20900472;28;20111;-82
2021/10/01 00:27:21;;;;;;;7.18;2.95;;;;;;;6.98;85.97;101223.84;20899964;28;20114;-82
2021/10/01 00:37:24;;;;;;;6.07;2.50;;;;;;;6.85;86.28;101218.50;20896424;28;20052;-82
2021/10/01 00:47:26;;;;;;;4.78;2.50;;;;;;;6.72;86.08;101219.19;20894685;28;20049;-82
2021/10/01 00:57:28;;;;;;;5.03;2.30;;;;;;;6.59;87.01;101212.94;20891459;28;20053;-82
2021/10/01 01:07:42;;;;;;;7.32;2.38;;;;;;;6.50;86.75;101204.13;20953345;22;20123;-72
2021/10/01 01:17:48;;;;;;;10.82;2.50;;;;;;;6.48;87.15;101187.63;20985405;28;20055;-72
2021/10/01 01:28:10;;;;;;;5.53;2.63;;;;;;;6.38;87.41;101189.25;20984021;28;20119;-72
2021/10/01 01:38:14;;;;;;;6.00;2.20;;;;;;;6.32;87.21;101171.78;20983812;28;20045;-72
2021/10/01 01:48:17;;;;;;;8.63;3.30;;;;;;;6.28;86.78;101158.75;20985627;28;20052;-73
2021/10/01 01:58:20;;;;;;;6.65;2.33;;;;;;;6.18;87.23;101157.75;20983320;28;20044;-73
2021/10/01 02:08:23;;;;;;;4.18;1.92;;;;;;;5.99;86.82;101158.31;20982581;28;20048;-72
2021/10/01 02:18:28;;;;;;;7.50;2.20;;;;;;;6.01;87.42;101154.03;20982909;28;20098;-72
2021/10/01 02:28:40;;;;;;;5.67;2.10;;;;;;;6.03;87.46;101128.91;20983429;28;20053;-72
2021/10/01 02:38:43;;;;;;;3.90;1.90;;;;;;;5.94;86.54;101127.06;20993359;28;20040;-72
2021/10/01 02:48:45;;;;;;;5.70;2.65;;;;;;;5.99;87.31;101129.72;20996363;28;20459;-72
2021/10/01 02:58:53;;;;;;;5.50;2.30;;;;;;;5.91;87.29;101122.69;20994924;28;20102;-72
2021/10/01 03:08:55;;;;;;;4.50;2.00;;;;;;;5.77;87.71;101118.09;20994107;28;20040;-72
2021/10/01 03:18:58;;;;;;;5.43;2.30;;;;;;;5.71;87.46;101108.50;20993814;28;20098;-72
2021/10/01 03:29:00;;;;;;;8.48;2.85;;;;;;;5.68;87.17;101089.38;20992740;28;20464;-72
2021/10/01 03:39:03;;;;;;;3.85;1.90;;;;;;;5.62;86.31;101092.75;20991699;28;20054;-72
2021/10/01 03:49:05;;;;;;;6.60;2.75;;;;;;;5.50;87.19;101088.22;20990982;28;20064;-72
2021/10/01 03:59:06;;;;;;;6.18;2.85;;;;;;;5.55;86.60;101088.31;21003410;22;20044;-72
2021/10/01 04:09:08;;;;;;;5.05;2.40;;;;;;;5.46;87.43;101076.06;20987295;28;20048;-72
2021/10/01 04:19:10;;;;;;;5.60;2.60;;;;;;;5.42;87.66;101079.47;20987840;28;20375;-72
2021/10/01 04:29:23;;;;;;;4.43;2.05;;;;;;;5.29;87.54;101065.41;20986556;28;20056;-72
2021/10/01 04:39:25;;;;;;;4.90;2.50;;;;;;;5.33;87.68;101059.41;20986091;28;20036;-72
2021/10/01 04:49:28;;;;;;;6.65;2.60;;;;;;;5.18;89.17;101064.34;20985256;28;20105;-72
2021/10/01 04:59:30;;;;;;;6.88;2.85;;;;;;;5.20;87.64;101057.47;20984518;28;20098;-72
2021/10/01 05:09:32;;;;;;;5.38;2.40;;;;;;;5.21;88.93;101053.13;20983255;28;20044;-71
2021/10/01 05:19:33;;;;;;;5.90;2.90;;;;;;;5.19;87.80;101050.53;20985112;28;20052;-71
2021/10/01 05:29:35;;;;;;;5.60;2.53;;;;;;;5.11;87.90;101047.78;20983706;28;20099;-72
2021/10/01 05:39:37;;;;;;;6.80;2.47;;;;;;;5.09;88.33;101043.44;20982407;28;20045;-72
2021/10/01 05:49:41;;;;;;;6.15;3.15;;;;;;;5.15;88.04;101044.41;20983456;28;20044;-71
2021/10/01 05:59:43;;;;;;;7.60;3.80;;;;;;;5.18;86.77;101038.41;20982070;28;20047;-71
2021/10/01 06:09:45;;;;;;;8.68;3.67;;;;;;;5.21;87.50;101043.63;20987592;28;20040;-72
2021/10/01 06:19:47;;;;;;;8.18;2.67;;;;;;;5.30;87.29;101048.97;20993547;28;20105;-72
2021/10/01 06:29:50;;;;;;;8.52;4.90;;;;;;;5.47;88.64;101056.16;20996277;28;20082;-71
2021/10/01 06:39:52;;;;;;;9.30;4.43;;;;;;;5.65;89.05;101051.22;20993596;28;20105;-71
2021/10/01 06:50:08;;;;;;;9.05;4.30;;;;;;;5.97;89.77;101058.66;20977364;28;20456;-71
2021/10/01 08:22:41;;;;;;;7.35;3.40;;;;;;;9.66;81.86;101004.28;20988529;28;20051;-72
2021/10/01 08:32:43;;;;;;;7.90;3.65;;;;;;;9.97;79.47;101003.34;20986967;28;20052;-70
2021/10/01 08:42:46;;;;;;;8.20;3.40;;;;;;;10.27;80.03;100980.56;20987772;28;20072;-71
2021/10/01 08:52:49;;;;;;;4.78;2.70;;;;;;;10.65;77.92;100977.72;20987084;28;20044;-70
2021/10/01 09:02:51;;;;;;;9.32;2.78;;;;;;;11.28;75.22;100972.81;20986282;28;20123;-71
2021/10/01 09:12:54;;;;;;;6.47;2.53;;;;;;;11.34;75.21;100945.66;21013307;28;20509;-70
2021/10/01 09:23:17;;;;;;;6.38;2.58;;;;;;;11.95;74.32;100936.28;21070949;28;20055;-71
2021/10/01 09:33:20;;;;;;;5.25;2.33;;;;;;;12.38;70.70;100914.69;21068654;28;20044;-72
2021/10/01 09:43:30;;;;;;;4.97;1.95;;;;;;;12.66;70.35;100912.50;21075132;28;20048;-71
2021/10/01 09:53:51;;;;;;;9.48;1.95;;;;;;;12.84;68.43;100899.06;21085846;28;20405;-71
2021/10/01 10:03:52;;;;;;;4.40;1.70;;;;;;;13.20;68.59;100884.38;21006052;28;20514;-71
2021/10/01 10:13:54;;;;;;;8.68;2.30;;;;;;;13.55;67.06;100877.59;21033626;28;20770;-71
2021/10/01 10:23:57;;;;;;;10.07;1.67;;;;;;;13.81;66.60;100869.19;21083533;28;20109;-71
2021/10/01 10:33:59;;;;;;;7.03;2.30;;;;;;;13.82;66.74;100844.56;21081296;28;20047;-71
2021/10/01 10:44:01;;;;;;;4.30;1.77;;;;;;;14.47;65.62;100842.19;21081455;28;20468;-71
2021/10/01 10:54:07;;;;;;;4.50;1.67;;;;;;;14.71;62.75;100821.41;21077537;28;20044;-71
2021/10/01 11:04:27;;;;;;;4.07;1.80;;;;;;;14.76;64.07;100809.00;21030538;28;20517;-71
2021/10/01 11:14:29;;;;;;;5.00;1.65;;;;;;;15.04;62.72;100790.63;20996128;28;20436;-71
2021/10/01 11:24:31;;;;;;;4.53;1.80;;;;;;;15.30;60.55;100768.78;20994737;28;20406;-71
2021/10/01 11:34:39;;;;;;;5.50;1.30;;;;;;;15.36;62.00;100753.63;20993326;28;20119;-72
2021/10/01 11:44:41;;;;;;;4.13;1.73;;;;;;;15.51;59.73;100735.63;20991857;28;20051;-71
2021/10/01 11:54:59;;;;;;;4.32;1.63;;;;;;;15.73;60.47;100720.00;20991490;28;20048;-71
2021/10/01 12:05:30;;;;;;;6.18;1.60;;;;;;;15.91;58.21;100698.31;20991142;28;20490;-71
2021/10/01 12:15:37;;;;;;;4.10;1.35;;;;;;;15.96;58.08;100672.59;20990178;28;20501;-71
2021/10/01 12:25:39;;;;;;;7.47;1.50;;;;;;;16.34;56.36;100649.28;20989567;28;20049;-71
2021/10/01 12:35:41;;;;;;;3.67;1.23;;;;;;;16.46;55.15;100638.25;21001579;28;20049;-71
2021/10/01 12:45:43;;;;;;;4.68;1.45;;;;;;;16.48;54.95;100623.22;21003756;28;20048;-72
2021/10/01 12:55:47;;;;;;;3.15;1.02;;;;;;;16.73;53.30;100625.00;20987309;28;20079;-71
2021/10/01 13:05:49;;;;;;;4.63;1.08;;;;;;;16.74;52.55;100610.84;20986611;28;20095;-72
2021/10/01 13:15:55;;;;;;;3.88;1.00;;;;;;;16.86;52.65;100602.44;21036430;28;20051;-71
2021/10/01 13:26:01;;;;;;;4.15;1.20;;;;;;;17.07;53.82;100598.09;21069391;28;20047;-71
2021/10/01 13:36:03;;;;;;;4.50;1.30;;;;;;;17.20;53.71;100580.81;21068211;28;20048;-73
2021/10/01 13:46:07;;;;;;;3.03;1.05;;;;;;;17.23;54.89;100569.25;21062900;28;20045;-71
2021/10/01 13:56:09;;;;;;;3.87;1.30;;;;;;;17.21;54.88;100571.09;20983193;28;20048;-71
2021/10/01 14:06:11;;;;;;;2.15;0.90;;;;;;;17.39;53.15;100543.84;20981787;28;20051;-72
2021/10/01 14:16:13;;;;;;;6.43;1.27;;;;;;;17.51;53.02;100540.72;20977765;28;20045;-71
2021/10/01 14:26:15;;;;;;;4.97;2.03;;;;;;;17.46;51.89;100525.94;20982188;28;20076;-71
2021/10/01 14:36:17;;;;;;;2.78;1.00;;;;;;;17.52;52.06;100520.38;20996766;28;20052;-71
2021/10/01 14:46:18;;;;;;;4.78;1.08;;;;;;;17.60;50.56;100507.69;20985867;28;20052;-72
2021/10/01 14:56:21;;;;;;;3.22;1.10;;;;;;;17.48;52.00;100498.47;20995818;28;20114;-71
2021/10/01 15:06:22;;;;;;;2.28;0.88;;;;;;;17.31;53.07;100490.41;20995922;28;20053;-71
2021/10/01 15:16:24;;;;;;;5.65;1.50;;;;;;;17.22;52.59;100488.13;20994984;28;20236;-71
2021/10/01 15:26:26;;;;;;;2.72;0.80;;;;;;;17.11;53.79;100468.28;20994130;28;20058;-72
2021/10/01 15:36:28;;;;;;;3.38;1.00;;;;;;;17.02;54.58;100463.38;20993114;28;20048;-71
2021/10/01 15:46:30;;;;;;;4.78;2.00;;;;;;;16.85;55.50;100465.84;20992478;28;20113;-72
2021/10/01 15:56:32;;;;;;;2.72;1.20;;;;;;;16.62;57.96;100464.97;20991690;28;20425;-72
2021/10/01 16:06:34;;;;;;;3.00;1.30;;;;;;;16.28;62.09;100464.53;20990853;28;20536;-72
2021/10/01 16:16:37;;;;;;;4.32;1.00;;;;;;;15.93;65.25;100460.56;21047597;28;20732;-72
2021/10/01 16:26:39;;;;;;;3.67;1.40;;;;;;;15.77;67.42;100453.22;21072740;28;20040;-72
2021/10/01 16:36:41;;;;;;;6.03;1.50;;;;;;;15.30;68.48;100462.78;21071704;28;20055;-71
2021/10/01 16:46:43;;;;;;;4.68;1.63;;;;;;;15.12;69.69;100454.56;20988125;28;20123;-71
2021/10/01 16:56:45;;;;;;;4.57;1.90;;;;;;;14.94;72.48;100451.66;20985717;28;20056;-70
2021/10/01 17:06:47;;;;;;;5.85;1.98;;;;;;;14.56;74.11;100454.66;20991418;28;20049;-71
2021/10/01 17:16:49;;;;;;;4.72;1.63;;;;;;;14.31;76.06;100443.09;21063859;28;20512;-72
2021/10/01 17:26:52;;;;;;;3.80;1.67;;;;;;;14.04;77.83;100457.94;21071896;28;20044;-71
2021/10/01 17:36:53;;;;;;;4.28;2.00;;;;;;;13.89;78.64;100461.00;21067431;28;20044;-70
2021/10/01 17:46:57;;;;;;;2.90;1.58;;;;;;;13.72;79.07;100459.72;21067155;28;20149;-70
2021/10/01 17:56:58;;;;;;;5.68;2.03;;;;;;;13.64;78.83;100445.03;20993347;28;20068;-71
2021/10/01 18:07:01;;;;;;;5.68;2.60;;;;;;;13.44;79.56;100446.44;20994467;28;20048;-70
2021/10/01 18:17:04;;;;;;;5.30;2.97;;;;;;;13.41;79.72;100445.66;21055696;28;20048;-70
2021/10/01 18:27:08;;;;;;;5.05;2.10;;;;;;;13.24;81.47;100441.72;21076613;28;20052;-71
2021/10/01 18:37:10;;;;;;;5.97;3.13;;;;;;;13.09;82.01;100445.56;21080842;28;20489;-70
2021/10/01 18:47:12;;;;;;;5.50;2.20;;;;;;;12.95;82.67;100434.53;21082609;28;20497;-70
2021/10/01 18:57:14;;;;;;;7.93;4.20;;;;;;;12.89;83.03;100434.69;21081069;28;20072;-70
2021/10/01 19:07:17;;;;;;;18.05;8.50;;;;;;;12.79;83.92;100428.81;21078682;28;20118;-70
2021/10/01 19:17:18;;;;;;;21.85;11.85;;;;;;;12.74;84.25;100445.56;21013526;28;20539;-70
2021/10/01 19:37:41;;;;;;;10.60;6.03;;;;;;;12.57;84.84;100444.19;20992705;28;20036;-70
2021/10/01 19:47:43;;;;;;;7.93;4.10;;;;;;;12.46;84.66;100445.34;20992067;28;20060;-70
2021/10/01 19:57:52;;;;;;;10.18;6.10;;;;;;;12.32;86.42;100453.53;20991289;28;20052;-70
2021/10/01 20:07:55;;;;;;;14.43;6.72;;;;;;;12.26;86.05;100458.91;20989606;28;20124;-70
2021/10/01 20:17:59;;;;;;;10.40;5.32;;;;;;;12.08;87.42;100460.19;21058938;28;20459;-70
2021/10/01 20:38:23;;;;;;;10.18;5.75;;;;;;;12.04;87.46;100464.63;21073014;28;20044;-71
2021/10/01 20:48:32;;;;;;;8.48;4.30;;;;;;;11.84;87.64;100472.03;21071423;28;20089;-71
2021/10/01 20:58:40;;;;;;;7.47;3.90;;;;;;;11.73;87.55;100476.56;21070772;28;20105;-71
2021/10/01 21:40:00;;;;;;;8.48;3.97;;;;;;;11.83;86.70;100449.28;20988669;28;20075;-71
2021/10/01 21:50:03;;;;;;;7.03;3.75;;;;;;;11.74;86.87;100455.59;21021429;28;20048;-71
2021/10/01 22:00:13;;;;;;;8.43;3.83;;;;;;;11.66;88.13;100456.63;21003685;28;20045;-71
2021/10/01 22:20:25;;;;;;;8.77;4.32;;;;;;;11.49;88.52;100470.88;20998192;28;20044;-71
2021/10/01 22:30:29;;;;;;;12.57;8.50;;;;;;;11.39;88.84;100471.97;20989129;28;20119;-71
2021/10/01 22:40:34;;;;;;;13.80;7.67;;;;;;;11.38;88.38;100451.88;20996956;28;20094;-71
2021/10/01 22:50:40;;;;;;;12.93;6.47;;;;;;;11.37;88.42;100455.41;20994029;28;20053;-72
2021/10/01 23:00:42;;;;;;;9.30;4.85;;;;;;;11.37;89.01;100471.13;20995700;28;20036;-71
2021/10/01 23:10:53;;;;;;;8.93;4.07;;;;;;;11.45;88.94;100456.13;20993340;28;20040;-71
2021/10/01 23:41:58;;;;;;;11.77;4.57;;;;;;;11.72;88.54;100456.50;20992401;28;20654;-71
